Time;durP1;ratioP1;P1;durP2;ratioP2;P2;SDS_P1;SDS_P2;PMS_P1;PMS_P2;Temp;Humidity;BMP_temperature;BMP_pressure;BME280_temperature;BME280_humidity;BME280_pressure;Samples;Min_cycle;Max_cycle;Signal;HPM_P1;HPM_P2
2022/04/10 00:01:43;;;;;;;28.95;14.73;;;;;;;3.57;74.51;98962.59;5054754;28;20052;-76
2022/04/10 00:04:11;;;;;;;27.77;13.98;;;;;;;3.60;76.03;98974.00;5054285;28;20048;-76
2022/04/10 00:06:39;;;;;;;27.55;14.35;;;;;;;3.69;75.04;98980.75;5054452;28;20076;-76
2022/04/10 00:09:07;;;;;;;26.98;13.60;;;;;;;3.64;74.98;98972.09;5054091;28;20044;-76
2022/04/10 00:11:34;;;;;;;27.92;14.15;;;;;;;3.65;74.00;98972.94;5053108;28;20098;-75
2022/04/10 00:14:02;;;;;;;28.80;13.85;;;;;;;3.60;74.35;98978.47;5054451;28;20045;-77
2022/04/10 00:16:29;;;;;;;24.02;12.88;;;;;;;3.63;74.78;98976.53;5054202;28;20049;-76
2022/04/10 00:19:01;;;;;;;25.88;12.93;;;;;;;3.63;73.75;98978.34;5054258;28;20041;-76
2022/04/10 00:21:29;;;;;;;25.63;13.63;;;;;;;3.60;73.54;98973.16;5055403;28;20045;-75
2022/04/10 00:23:58;;;;;;;28.30;12.55;;;;;;;3.66;73.68;98978.22;5054158;28;20056;-76
2022/04/10 00:26:25;;;;;;;23.88;13.40;;;;;;;3.86;74.07;98989.84;5053658;28;20077;-76
2022/04/10 00:28:53;;;;;;;34.13;13.98;;;;;;;3.72;74.89;98983.31;5054156;28;20045;-75
2022/04/10 00:31:21;;;;;;;27.73;13.48;;;;;;;3.67;75.27;98985.31;5054042;28;20044;-76
2022/04/10 00:33:48;;;;;;;27.52;13.63;;;;;;;3.81;74.02;98986.50;5054036;28;20107;-76
2022/04/10 00:36:15;;;;;;;25.20;12.32;;;;;;;3.84;74.55;98989.06;5053849;28;20049;-75
2022/04/10 00:38:43;;;;;;;26.77;12.48;;;;;;;3.79;74.64;98994.63;5053964;28;20049;-75
2022/04/10 00:41:12;;;;;;;26.33;12.50;;;;;;;3.83;74.69;98990.00;5053381;28;20090;-76
2022/04/10 00:43:40;;;;;;;26.30;12.77;;;;;;;4.03;74.00;98992.69;5053387;28;20114;-76
2022/04/10 00:46:07;;;;;;;25.55;13.15;;;;;;;3.89;74.83;98998.63;5055318;28;20053;-76
2022/04/10 00:48:35;;;;;;;25.15;11.88;;;;;;;3.88;75.33;98996.03;5053187;28;20079;-75
2022/04/10 00:54:01;;;;;;;21.55;10.55;;;;;;;3.95;74.51;98994.84;4972336;28;20086;-76
2022/04/10 00:56:30;;;;;;;22.20;11.23;;;;;;;3.95;74.73;98997.50;4961544;28;20624;-76
2022/04/10 00:58:58;;;;;;;21.70;11.25;;;;;;;3.94;74.59;98995.78;4953535;28;20062;-76
2022/04/10 01:01:25;;;;;;;22.15;11.18;;;;;;;3.83;74.50;98985.53;4953333;29;20418;-75
2022/04/10 01:03:53;;;;;;;18.63;10.15;;;;;;;3.86;74.89;98989.84;4952692;28;20465;-76
2022/04/10 01:06:21;;;;;;;22.85;11.23;;;;;;;3.97;75.02;98998.31;4953432;28;20147;-75
2022/04/10 01:08:49;;;;;;;21.23;10.43;;;;;;;3.88;74.85;98998.72;4952971;29;20399;-75
2022/04/10 01:11:16;;;;;;;22.85;11.43;;;;;;;4.02;74.49;98998.97;4953285;28;20067;-76
2022/04/10 01:13:45;;;;;;;25.45;12.38;;;;;;;3.80;76.15;98999.03;4953323;28;20462;-76
2022/04/10 01:16:13;;;;;;;25.48;12.45;;;;;;;3.77;76.54;99000.00;4953411;28;20525;-76
2022/04/10 01:18:41;;;;;;;21.90;11.32;;;;;;;3.72;75.74;98999.34;4953408;28;20067;-76
2022/04/10 01:21:09;;;;;;;22.70;11.68;;;;;;;3.61;76.85;99004.25;4953183;28;20102;-76
2022/04/10 01:23:39;;;;;;;22.98;11.10;;;;;;;3.67;76.69;99011.13;4952990;28;20051;-76
2022/04/10 01:26:06;;;;;;;24.58;11.55;;;;;;;3.61;77.08;99020.28;5030403;28;20111;-75
2022/04/10 01:28:34;;;;;;;25.50;11.13;;;;;;;3.67;77.09;99028.03;5033215;28;20103;-76
2022/04/10 01:31:01;;;;;;;23.52;11.23;;;;;;;3.73;76.44;99027.78;5032305;28;20041;-75
2022/04/10 01:33:29;;;;;;;25.85;11.98;;;;;;;3.67;76.77;99019.13;5032847;28;20045;-75
2022/04/10 01:35:56;;;;;;;21.33;10.80;;;;;;;3.59;76.94;99024.81;5033179;28;20068;-76
2022/04/10 01:38:24;;;;;;;20.90;10.55;;;;;;;3.61;77.88;99021.13;5032837;28;20389;-76
2022/04/10 01:40:53;;;;;;;22.80;11.43;;;;;;;3.66;77.25;99022.75;5032859;28;20056;-76
2022/04/10 01:43:20;;;;;;;19.23;10.43;;;;;;;3.65;77.28;99026.34;5045107;28;20102;-76
2022/04/10 01:45:48;;;;;;;24.08;10.73;;;;;;;3.60;77.42;99030.09;5053283;28;20049;-76
2022/04/10 01:48:15;;;;;;;21.67;10.40;;;;;;;3.60;77.83;99045.25;5052567;28;20068;-76
2022/04/10 01:50:43;;;;;;;22.80;10.95;;;;;;;3.63;78.08;99043.31;5052870;28;20048;-75
2022/04/10 01:53:10;;;;;;;20.77;10.70;;;;;;;3.59;77.83;99049.72;5052566;28;20045;-75
2022/04/10 01:55:38;;;;;;;24.17;11.23;;;;;;;3.59;78.36;99038.16;5052867;28;20045;-76
2022/04/10 01:58:07;;;;;;;22.23;10.98;;;;;;;3.30;78.77;99048.19;5052962;28;20048;-75
2022/04/10 02:00:34;;;;;;;20.23;10.75;;;;;;;3.46;78.75;99049.31;5053550;28;20045;-76
2022/04/10 02:03:02;;;;;;;19.58;10.18;;;;;;;3.62;78.07;99060.25;5056990;28;20045;-75
2022/04/10 02:05:29;;;;;;;21.45;10.57;;;;;;;3.51;78.76;99067.84;5056961;28;20051;-76
2022/04/10 02:07:57;;;;;;;21.02;10.38;;;;;;;3.50;79.11;99058.09;5056608;28;20052;-76
2022/04/10 02:10:24;;;;;;;22.70;10.85;;;;;;;3.47;79.09;99061.78;5056708;28;20048;-76
2022/04/10 02:12:52;;;;;;;24.27;10.75;;;;;;;3.48;79.18;99067.97;5056864;28;20049;-75
2022/04/10 02:15:21;;;;;;;24.02;11.23;;;;;;;3.51;79.68;99061.66;5056733;28;20373;-76
2022/04/10 02:17:48;;;;;;;21.50;10.65;;;;;;;3.47;79.55;99067.13;5056459;28;20129;-75
2022/04/10 02:20:16;;;;;;;22.65;10.02;;;;;;;3.40;79.50;99060.25;5056598;28;20045;-76
2022/04/10 02:22:43;;;;;;;20.67;10.25;;;;;;;3.34;80.78;99068.50;5056304;28;20045;-76
2022/04/10 02:25:11;;;;;;;19.13;9.82;;;;;;;3.37;80.12;99068.38;5056408;28;20050;-76
2022/04/10 02:27:38;;;;;;;21.88;9.88;;;;;;;3.51;79.50;99077.66;5044151;28;20095;-76
2022/04/10 02:30:07;;;;;;;23.75;10.13;;;;;;;3.50;79.41;99070.59;5036248;28;20378;-76
2022/04/10 02:32:36;;;;;;;22.00;10.73;;;;;;;3.45;80.49;99079.63;5036357;28;20054;-76
2022/04/10 02:35:04;;;;;;;20.85;10.57;;;;;;;3.34;80.45;99081.84;5035177;28;20053;-76
2022/04/10 02:37:32;;;;;;;22.77;10.82;;;;;;;3.38;81.33;99077.28;5036242;28;20066;-76
2022/04/10 02:39:59;;;;;;;24.05;11.73;;;;;;;3.41;80.89;99074.47;5036298;28;20408;-75
2022/04/10 02:42:27;;;;;;;22.15;10.80;;;;;;;3.57;80.38;99072.09;5040851;28;20447;-76
2022/04/10 02:44:55;;;;;;;20.15;9.52;;;;;;;3.51;80.61;99072.34;5055854;28;20056;-76
2022/04/10 02:47:23;;;;;;;20.85;10.07;;;;;;;3.50;80.58;99075.94;5055965;28;20041;-76
2022/04/10 02:49:52;;;;;;;21.10;9.10;;;;;;;3.55;80.62;99069.47;5055350;28;20128;-76
2022/04/10 02:52:19;;;;;;;20.77;9.50;;;;;;;3.46;81.29;99078.69;5055918;28;20056;-76
2022/04/10 02:54:47;;;;;;;19.70;8.93;;;;;;;3.57;81.37;99080.09;5055979;28;20041;-76
2022/04/10 02:57:14;;;;;;;17.77;9.10;;;;;;;3.63;80.94;99086.03;5055676;28;20045;-76
2022/04/10 02:59:42;;;;;;;20.88;9.90;;;;;;;3.62;80.82;99080.78;5055776;28;20497;-76
2022/04/10 03:02:10;;;;;;;17.63;8.95;;;;;;;3.62;81.48;99089.63;5055761;28;20124;-76
2022/04/10 03:04:37;;;;;;;18.55;9.02;;;;;;;3.48;81.80;99086.66;5055395;28;20048;-76
2022/04/10 03:07:06;;;;;;;19.50;8.85;;;;;;;3.37;82.66;99083.53;5055620;28;20507;-76
2022/04/10 03:09:33;;;;;;;19.08;8.93;;;;;;;3.35;82.03;99096.94;5055513;28;20064;-76
2022/04/10 03:12:03;;;;;;;19.52;9.13;;;;;;;3.30;83.19;99101.59;5054834;28;20446;-76
2022/04/10 03:14:31;;;;;;;19.58;8.60;;;;;;;3.33;82.41;99104.13;5055425;28;20415;-76
2022/04/10 03:16:58;;;;;;;19.95;8.80;;;;;;;3.39;82.33;99101.22;5055594;28;20045;-75
2022/04/10 03:19:26;;;;;;;17.73;8.95;;;;;;;3.52;82.01;99100.78;5054705;28;20045;-76
2022/04/10 03:21:53;;;;;;;17.35;8.20;;;;;;;3.36;82.42;99105.84;5055244;28;20056;-76
2022/04/10 03:24:22;;;;;;;17.23;8.38;;;;;;;3.30;82.85;99113.16;5055299;28;20451;-75
2022/04/10 03:26:50;;;;;;;19.23;8.73;;;;;;;3.35;82.87;99115.63;5054440;28;20061;-76
2022/04/10 03:29:17;;;;;;;19.58;9.38;;;;;;;3.30;82.77;99122.94;5055346;28;20056;-76
2022/04/10 03:31:45;;;;;;;18.25;8.35;;;;;;;3.22;83.94;99123.22;5055107;28;20561;-75
2022/04/10 03:34:12;;;;;;;20.50;9.40;;;;;;;3.15;84.42;99127.06;5054808;28;20049;-76
2022/04/10 03:36:40;;;;;;;27.98;9.73;;;;;;;3.06;84.01;99128.28;5055088;28;20401;-76
2022/04/10 03:39:07;;;;;;;20.88;10.25;;;;;;;3.03;84.30;99136.38;5041637;28;20050;-76
2022/04/10 03:41:36;;;;;;;25.50;11.43;;;;;;;2.88;84.29;99143.16;5033713;28;20114;-76
2022/04/10 03:44:04;;;;;;;22.95;11.60;;;;;;;2.99;84.87;99145.44;5052919;28;20408;-76
2022/04/10 03:46:31;;;;;;;20.90;10.02;;;;;;;3.06;84.52;99144.31;5054916;28;20048;-76
2022/04/10 03:48:59;;;;;;;21.08;9.57;;;;;;;3.02;84.26;99146.19;5054394;28;20438;-76
2022/04/10 03:51:26;;;;;;;20.38;10.23;;;;;;;3.12;84.04;99157.41;5054765;28;20072;-76
2022/04/10 03:53:54;;;;;;;19.58;10.10;;;;;;;3.07;84.69;99151.38;5054918;28;20500;-75
2022/04/10 03:56:21;;;;;;;18.83;9.38;;;;;;;3.01;84.56;99156.91;5054973;28;20099;-76
2022/04/10 03:58:50;;;;;;;22.45;10.55;;;;;;;3.04;84.78;99156.78;5054821;28;20060;-76
2022/04/10 04:01:18;;;;;;;23.42;10.00;;;;;;;3.01;84.87;99164.91;5054681;28;20060;-76
2022/04/10 04:03:45;;;;;;;21.83;9.68;;;;;;;2.99;85.35;99166.75;5054353;28;20099;-76
2022/04/10 04:06:13;;;;;;;18.10;9.93;;;;;;;2.95;85.13;99170.47;5054627;28;20103;-75
2022/04/10 04:08:41;;;;;;;20.10;9.85;;;;;;;3.10;84.88;99169.94;5054546;28;20037;-76
2022/04/10 04:11:08;;;;;;;18.13;9.07;;;;;;;3.00;85.69;99174.72;5054416;28;20056;-76
2022/04/10 04:13:38;;;;;;;18.73;9.13;;;;;;;2.83;86.23;99178.00;5054491;28;20041;-76
2022/04/10 04:16:07;;;;;;;19.70;8.85;;;;;;;2.82;86.21;99188.72;5043720;28;20496;-76
2022/04/10 04:18:35;;;;;;;19.05;8.90;;;;;;;2.85;86.35;99191.25;5033778;28;20057;-76
2022/04/10 04:21:03;;;;;;;18.23;8.80;;;;;;;2.96;86.64;99189.13;5034248;28;20046;-76
2022/04/10 04:23:30;;;;;;;19.80;8.95;;;;;;;2.95;86.35;99197.16;5034052;28;20057;-76
2022/04/10 04:25:57;;;;;;;18.27;8.93;;;;;;;2.87;86.83;99202.78;5034012;28;20049;-76
2022/04/10 04:28:25;;;;;;;17.98;8.57;;;;;;;2.92;86.87;99202.59;5033841;28;20052;-76
2022/04/10 04:30:52;;;;;;;20.02;8.93;;;;;;;2.94;86.97;99206.09;5034041;28;20049;-75
2022/04/10 04:33:21;;;;;;;20.02;8.80;;;;;;;2.92;86.61;99214.16;5033498;28;20389;-76
2022/04/10 04:35:49;;;;;;;23.70;8.65;;;;;;;2.94;86.46;99216.75;5033786;28;20056;-75
2022/04/10 04:38:17;;;;;;;17.63;8.85;;;;;;;3.00;86.84;99217.44;5033952;28;20067;-75
2022/04/10 04:40:44;;;;;;;18.63;8.45;;;;;;;2.99;86.54;99212.13;5034026;28;20511;-76
2022/04/10 04:43:14;;;;;;;19.73;9.27;;;;;;;3.06;86.75;99224.34;5044724;28;20110;-76
2022/04/10 04:45:41;;;;;;;20.45;10.25;;;;;;;3.03;86.55;99230.66;5054117;28;20135;-76
2022/04/10 04:48:09;;;;;;;18.88;8.60;;;;;;;3.06;86.64;99227.03;5053407;28;20075;-76
2022/04/10 04:50:38;;;;;;;21.73;9.57;;;;;;;3.15;86.71;99233.81;5053399;28;20049;-75
2022/04/10 04:53:05;;;;;;;22.27;10.13;;;;;;;3.09;86.72;99237.59;5052987;28;20103;-76
2022/04/10 04:55:33;;;;;;;22.75;10.18;;;;;;;3.13;86.72;99239.22;5053053;28;20091;-76
2022/04/10 04:58:00;;;;;;;20.60;9.18;;;;;;;3.18;87.10;99242.59;5052839;28;20045;-76
2022/04/10 05:00:28;;;;;;;19.05;9.07;;;;;;;3.07;87.19;99251.91;5053125;28;20037;-75
2022/04/10 05:02:55;;;;;;;19.13;8.48;;;;;;;3.02;87.82;99260.03;5053464;28;20099;-76
2022/04/10 05:05:24;;;;;;;16.33;7.38;;;;;;;3.08;87.52;99265.19;5053234;28;20045;-76
2022/04/10 05:07:53;;;;;;;16.73;7.60;;;;;;;2.97;88.14;99276.22;5053288;28;20076;-76
2022/04/10 05:10:20;;;;;;;19.42;8.38;;;;;;;3.08;87.58;99270.53;5053145;28;20044;-75
2022/04/10 05:12:48;;;;;;;17.20;9.38;;;;;;;3.06;87.64;99272.38;5053415;28;20056;-76
2022/04/10 05:15:15;;;;;;;17.65;8.48;;;;;;;3.17;87.11;99267.53;5052744;28;20049;-75
2022/04/10 05:17:43;;;;;;;17.10;8.98;;;;;;;3.13;87.69;99273.03;5053291;28;20045;-75
2022/04/10 05:20:12;;;;;;;16.75;8.18;;;;;;;3.18;87.97;99279.06;5053151;28;20044;-75
2022/04/10 05:22:39;;;;;;;16.10;8.45;;;;;;;3.38;86.85;99289.03;5053239;28;20041;-76
2022/04/10 05:25:09;;;;;;;24.65;11.63;;;;;;;3.39;86.67;99277.44;5052985;28;20403;-76
2022/04/10 05:27:37;;;;;;;21.27;10.07;;;;;;;3.31;87.16;99284.84;5052930;28;20052;-76
2022/04/10 05:30:05;;;;;;;34.15;13.40;;;;;;;3.52;86.71;99282.34;5052947;28;20095;-76
2022/04/10 05:32:32;;;;;;;25.33;10.48;;;;;;;3.41;87.49;99293.41;5052905;28;20041;-75
2022/04/10 05:35:00;;;;;;;16.85;7.75;;;;;;;3.42;87.18;99292.50;5052502;28;20045;-75
2022/04/10 05:37:27;;;;;;;16.48;8.20;;;;;;;3.55;86.50;99292.94;5052911;28;20049;-76
2022/04/10 05:39:55;;;;;;;20.48;9.05;;;;;;;3.61;86.16;99306.06;5052892;28;20442;-76
2022/04/10 05:42:24;;;;;;;21.15;9.45;;;;;;;3.74;84.92;99293.13;5052794;28;20048;-76
2022/04/10 05:44:51;;;;;;;16.85;8.05;;;;;;;3.71;85.88;99296.75;5052476;28;20060;-76
2022/04/10 05:47:19;;;;;;;19.65;8.38;;;;;;;3.94;84.56;99299.50;5052867;28;20041;-76
2022/04/10 05:49:46;;;;;;;18.65;8.82;;;;;;;3.82;85.22;99295.50;5052810;28;20115;-76
2022/04/10 05:52:14;;;;;;;17.13;8.73;;;;;;;3.90;84.49;99296.09;5052876;28;20049;-76
2022/04/10 05:54:42;;;;;;;15.75;6.95;;;;;;;4.04;84.06;99301.78;5052933;28;20492;-76
2022/04/10 05:57:09;;;;;;;17.90;7.28;;;;;;;3.94;84.84;99304.84;5052919;28;20045;-76
2022/04/10 05:59:38;;;;;;;16.77;6.32;;;;;;;4.00;84.60;99302.84;5052519;28;20045;-76
2022/04/10 06:02:06;;;;;;;14.68;5.82;;;;;;;4.09;83.52;99303.41;5052768;28;20462;-76
2022/04/10 06:04:33;;;;;;;25.10;10.05;;;;;;;3.99;83.92;99306.44;5052883;28;20491;-76
2022/04/10 06:07:01;;;;;;;26.42;11.30;;;;;;;4.03;85.43;99308.06;5052778;28;20053;-76
2022/04/10 06:09:28;;;;;;;21.80;8.68;;;;;;;4.30;83.65;99302.59;5052853;28;20103;-76
2022/04/10 06:11:56;;;;;;;31.00;12.68;;;;;;;4.31;83.27;99293.63;5052688;28;20488;-76
2022/04/10 06:14:23;;;;;;;18.60;8.68;;;;;;;4.24;83.38;99300.13;5052386;28;20444;-76
2022/04/10 06:16:52;;;;;;;41.88;15.93;;;;;;;4.37;83.28;99300.53;5052822;28;20137;-76
2022/04/10 06:19:20;;;;;;;30.20;10.30;;;;;;;4.43;82.94;99313.66;5052491;28;20495;-77
2022/04/10 06:21:48;;;;;;;15.43;6.60;;;;;;;4.43;82.56;99308.31;5052659;28;20411;-76
2022/04/10 06:24:15;;;;;;;16.05;5.97;;;;;;;4.40;82.82;99305.75;5052582;28;20049;-76
2022/04/10 06:26:44;;;;;;;17.83;7.13;;;;;;;4.44;83.23;99298.50;5052814;28;20048;-76
2022/04/10 06:29:12;;;;;;;14.35;5.97;;;;;;;4.59;82.91;99299.69;5052032;28;20053;-76
2022/04/10 06:31:39;;;;;;;16.35;6.65;;;;;;;4.67;82.62;99304.69;5052446;28;20049;-76
2022/04/10 06:34:08;;;;;;;15.38;5.95;;;;;;;4.61;83.10;99301.34;5052560;28;20120;-76
2022/04/10 06:36:36;;;;;;;12.18;5.53;;;;;;;4.73;83.28;99312.50;5052378;28;20049;-76
2022/04/10 06:39:04;;;;;;;16.85;5.35;;;;;;;4.62;82.76;99310.25;5052307;28;20499;-76
2022/04/10 06:41:32;;;;;;;15.43;5.47;;;;;;;4.64;83.71;99316.41;5052195;28;20057;-76
2022/04/10 06:43:59;;;;;;;12.65;5.50;;;;;;;4.59;83.03;99321.94;5052254;28;20416;-76
2022/04/10 06:46:27;;;;;;;13.73;5.63;;;;;;;4.67;83.54;99318.97;5052915;28;20388;-76
2022/04/10 06:48:54;;;;;;;15.48;6.10;;;;;;;4.63;83.63;99317.34;5055905;28;20049;-76
2022/04/10 06:51:23;;;;;;;15.85;5.90;;;;;;;4.83;82.34;99324.56;5055984;28;20049;-76
2022/04/10 06:53:50;;;;;;;18.10;6.30;;;;;;;4.82;81.94;99308.56;5056052;28;20057;-76
2022/04/10 06:56:18;;;;;;;19.40;7.13;;;;;;;4.79;82.13;99321.13;5055595;28;20056;-76
2022/04/10 06:58:46;;;;;;;27.35;9.60;;;;;;;5.01;82.09;99330.97;5055849;28;20103;-76
2022/04/10 07:01:13;;;;;;;28.63;9.95;;;;;;;5.00;82.18;99331.91;5055931;28;20052;-77
2022/04/10 07:03:41;;;;;;;27.33;9.02;;;;;;;5.09;81.65;99333.31;5055665;28;20045;-76
2022/04/10 07:06:08;;;;;;;36.08;9.98;;;;;;;5.08;81.74;99331.56;5054029;28;20052;-75
2022/04/10 07:08:37;;;;;;;47.70;12.43;;;;;;;5.06;81.81;99331.66;5052089;28;20049;-76
2022/04/10 07:11:05;;;;;;;32.55;8.30;;;;;;;5.26;80.94;99339.78;5051469;28;20053;-76
2022/04/10 07:13:32;;;;;;;42.05;10.10;;;;;;;5.19;80.44;99328.44;5052135;28;20049;-76
2022/04/10 07:16:00;;;;;;;25.35;8.90;;;;;;;5.20;80.28;99335.53;5051938;28;20044;-75
2022/04/10 07:18:28;;;;;;;22.55;7.78;;;;;;;5.27;80.56;99330.81;5051751;28;20530;-76
2022/04/10 07:20:55;;;;;;;17.25;7.03;;;;;;;5.24;79.94;99338.97;5051854;28;20620;-76
2022/04/10 07:26:09;;;;;;;16.02;6.75;;;;;;;5.34;79.81;99337.63;5053756;28;20102;-75
2022/04/10 07:28:37;;;;;;;18.00;6.85;;;;;;;5.41;79.92;99338.25;5051277;28;20044;-74
2022/04/10 07:31:06;;;;;;;18.40;6.47;;;;;;;5.47;79.52;99341.50;5051282;28;20053;-74
2022/04/10 07:33:34;;;;;;;15.77;5.63;;;;;;;5.39;79.24;99346.34;5051351;28;20056;-76
2022/04/10 07:36:01;;;;;;;16.10;5.65;;;;;;;5.44;79.32;99343.47;5050875;28;20102;-76
2022/04/10 07:38:28;;;;;;;14.98;5.65;;;;;;;5.49;78.43;99346.81;5051342;28;20053;-75
2022/04/10 07:40:56;;;;;;;10.07;4.40;;;;;;;5.45;79.06;99356.78;5051036;28;20049;-76
2022/04/10 07:43:25;;;;;;;21.02;6.93;;;;;;;5.57;79.24;99349.16;5038403;28;20041;-76
2022/04/10 07:48:38;;;;;;;19.45;5.72;;;;;;;5.72;78.01;99348.50;5044928;28;20407;-75
2022/04/10 07:51:07;;;;;;;13.90;5.00;;;;;;;5.75;77.73;99348.34;5051034;28;20048;-75
2022/04/10 07:53:34;;;;;;;14.60;5.20;;;;;;;5.70;77.64;99345.00;5050811;28;20049;-74
2022/04/10 07:56:02;;;;;;;14.80;5.30;;;;;;;5.76;78.36;99355.44;5049742;28;20498;-75
2022/04/10 07:58:31;;;;;;;15.52;5.25;;;;;;;5.82;78.69;99359.69;5049619;28;20569;-75
2022/04/10 08:00:58;;;;;;;16.60;4.72;;;;;;;5.97;76.95;99355.44;5050556;28;20091;-75
2022/04/10 08:03:26;;;;;;;16.38;4.85;;;;;;;6.05;76.08;99364.03;5051055;28;20427;-75
2022/04/10 08:05:54;;;;;;;14.40;5.15;;;;;;;6.09;76.86;99362.97;5050578;28;20388;-75
2022/04/10 08:08:21;;;;;;;11.45;4.35;;;;;;;6.08;76.87;99353.16;5050663;28;20073;-75
2022/04/10 08:10:51;;;;;;;16.50;5.22;;;;;;;6.21;76.15;99360.66;5050081;28;20049;-75
2022/04/10 08:13:18;;;;;;;13.75;4.80;;;;;;;6.21;77.05;99368.69;5049979;28;20216;-75
2022/04/10 08:15:48;;;;;;;24.88;9.15;;;;;;;6.20;76.97;99370.53;5039305;28;20049;-75
2022/04/10 08:18:16;;;;;;;14.68;5.22;;;;;;;6.26;76.66;99368.50;5045107;28;20527;-76
2022/04/10 08:20:43;;;;;;;18.30;4.75;;;;;;;6.32;75.26;99363.72;5041134;28;20049;-75
2022/04/10 08:23:11;;;;;;;16.70;5.72;;;;;;;6.31;75.81;99378.03;5040262;28;20388;-75
2022/04/10 08:25:38;;;;;;;21.73;6.95;;;;;;;6.50;75.61;99369.16;5040345;28;20049;-76
2022/04/10 08:28:06;;;;;;;11.98;4.35;;;;;;;6.40;74.88;99376.75;5047653;28;20048;-76
2022/04/10 08:30:33;;;;;;;16.10;5.53;;;;;;;6.49;74.57;99376.31;5049195;28;20049;-75
2022/04/10 08:33:03;;;;;;;14.02;4.25;;;;;;;6.56;73.54;99371.53;5050413;28;20060;-75
2022/04/10 08:35:31;;;;;;;13.60;4.22;;;;;;;6.63;72.93;99380.19;5050129;28;20099;-75
2022/04/10 08:37:59;;;;;;;24.73;6.85;;;;;;;6.66;73.69;99378.22;5049805;28;20052;-73
2022/04/10 08:40:28;;;;;;;12.70;4.05;;;;;;;6.59;72.32;99381.28;5050276;28;20074;-76
2022/04/10 08:42:55;;;;;;;14.10;4.80;;;;;;;6.56;71.81;99379.59;5049965;28;20064;-76
2022/04/10 08:45:25;;;;;;;13.25;4.47;;;;;;;6.69;72.40;99382.56;5050049;28;20061;-76
2022/04/10 08:47:53;;;;;;;13.77;3.90;;;;;;;6.70;71.55;99380.75;5049620;28;20056;-75
2022/04/10 08:50:24;;;;;;;12.02;4.05;;;;;;;6.76;69.59;99375.09;5050203;28;20123;-76
2022/04/10 08:52:53;;;;;;;13.13;4.30;;;;;;;6.87;69.57;99380.81;5050892;28;20052;-76
2022/04/10 08:55:20;;;;;;;11.30;3.30;;;;;;;6.90;66.37;99374.41;5049781;28;20049;-76
2022/04/10 08:57:48;;;;;;;9.80;3.30;;;;;;;6.93;66.15;99377.84;5050039;28;20136;-76
2022/04/10 09:00:18;;;;;;;13.45;4.53;;;;;;;6.87;65.33;99378.13;5049505;28;20501;-77
2022/04/10 09:02:47;;;;;;;15.32;4.60;;;;;;;6.96;66.64;99366.09;5051130;28;20053;-76
2022/04/10 09:05:19;;;;;;;16.08;4.50;;;;;;;7.10;65.96;99363.59;5049404;28;20041;-76
2022/04/10 09:08:07;;;;;;;13.43;4.50;;;;;;;7.08;64.66;99370.84;5049179;28;20041;-76
2022/04/10 09:10:54;;;;;;;11.85;4.00;;;;;;;7.08;65.35;99378.03;5048449;28;20484;-76
2022/04/10 09:13:27;;;;;;;15.27;4.03;;;;;;;7.24;66.08;99373.66;5049700;28;20041;-76
2022/04/10 09:16:02;;;;;;;15.30;5.00;;;;;;;7.03;64.52;99375.56;5047540;28;20053;-77
2022/04/10 09:18:30;;;;;;;11.50;3.70;;;;;;;7.14;66.05;99369.69;5051537;28;20060;-77
2022/04/10 09:21:07;;;;;;;13.00;4.10;;;;;;;7.07;66.90;99376.28;5048936;28;20052;-77
2022/04/10 09:23:36;;;;;;;11.23;3.05;;;;;;;7.32;66.08;99369.69;5051580;28;20503;-77
2022/04/10 09:26:03;;;;;;;15.57;4.60;;;;;;;7.28;65.65;99373.50;5051823;28;20060;-77
2022/04/10 09:28:42;;;;;;;15.57;4.53;;;;;;;7.16;66.70;99364.22;5051544;28;20044;-77
2022/04/10 09:31:26;;;;;;;10.80;3.60;;;;;;;7.01;66.13;99374.78;5051560;28;20069;-76
2022/04/10 09:33:54;;;;;;;15.15;4.18;;;;;;;7.14;67.41;99377.75;5054119;28;20041;-77
2022/04/10 09:36:40;;;;;;;15.25;5.30;;;;;;;7.00;68.39;99377.53;5051428;28;20041;-77
2022/04/10 09:39:11;;;;;;;25.33;6.80;;;;;;;6.98;67.09;99382.09;5050908;28;20048;-77
2022/04/10 09:41:39;;;;;;;17.13;5.10;;;;;;;7.07;66.38;99387.91;5050160;28;20491;-77
2022/04/10 09:44:17;;;;;;;15.95;5.30;;;;;;;7.00;65.46;99386.47;5051554;28;20053;-78
2022/04/10 09:46:45;;;;;;;17.92;5.85;;;;;;;6.94;66.53;99394.84;5054368;28;20044;-77
2022/04/10 09:49:14;;;;;;;12.75;4.90;;;;;;;6.99;65.94;99383.84;5051231;28;20403;-77
2022/04/10 09:52:04;;;;;;;13.60;5.05;;;;;;;6.89;65.43;99394.16;5050981;28;20087;-77
2022/04/10 09:54:38;;;;;;;14.85;5.47;;;;;;;6.93;66.51;99393.06;5053768;28;20041;-77
2022/04/10 09:57:06;;;;;;;15.38;5.18;;;;;;;6.93;65.79;99387.69;5052117;28;20041;-76
2022/04/10 09:59:40;;;;;;;13.23;5.07;;;;;;;7.02;66.02;99394.44;5050940;28;20095;-76
2022/04/10 10:02:08;;;;;;;13.00;4.00;;;;;;;6.98;65.57;99392.84;5052706;28;20041;-77
2022/04/10 10:04:37;;;;;;;11.25;3.90;;;;;;;6.89;64.24;99399.53;5050842;28;20095;-76
2022/04/10 10:07:06;;;;;;;9.25;3.10;;;;;;;6.91;63.63;99392.25;5051182;28;20044;-76
2022/04/10 10:09:34;;;;;;;15.05;4.55;;;;;;;6.96;64.95;99401.84;5050960;28;20044;-76
2022/04/10 10:12:04;;;;;;;9.05;3.70;;;;;;;6.99;63.94;99405.31;5051190;28;20051;-76
2022/04/10 10:14:33;;;;;;;17.08;4.75;;;;;;;6.93;64.82;99393.94;5051109;28;20057;-76
2022/04/10 10:17:02;;;;;;;27.88;10.38;;;;;;;6.90;64.48;99391.41;5048553;28;20045;-76
2022/04/10 10:19:34;;;;;;;42.92;16.88;;;;;;;6.96;64.86;99401.84;5050728;28;20045;-75
2022/04/10 10:22:02;;;;;;;18.33;7.53;;;;;;;7.20;64.99;99398.91;5050150;28;20051;-76
2022/04/10 10:24:34;;;;;;;13.25;5.18;;;;;;;7.14;64.42;99399.22;5044656;28;20407;-76
2022/04/10 10:27:19;;;;;;;14.27;4.65;;;;;;;7.19;65.20;99391.81;5044664;28;20060;-76
2022/04/10 10:29:57;;;;;;;18.83;5.10;;;;;;;7.24;63.22;99394.25;5053488;28;20568;-77
2022/04/10 10:32:40;;;;;;;20.33;7.07;;;;;;;7.30;63.18;99393.94;5054692;28;20503;-77
2022/04/10 10:35:08;;;;;;;8.27;3.30;;;;;;;7.50;62.59;99398.31;5051730;28;20466;-77
2022/04/10 10:37:49;;;;;;;7.18;2.92;;;;;;;7.34;62.18;99400.94;5055328;28;20507;-77
2022/04/10 10:40:18;;;;;;;10.50;3.88;;;;;;;7.38;62.09;99399.81;5045674;28;20042;-77
2022/04/10 10:42:49;;;;;;;10.13;3.97;;;;;;;7.35;62.77;99397.28;5051729;28;20048;-75
2022/04/10 10:45:33;;;;;;;15.77;5.20;;;;;;;7.48;62.49;99415.47;5052634;28;20052;-76
2022/04/10 10:48:39;;;;;;;19.60;6.18;;;;;;;7.69;62.53;99406.31;5053188;28;20041;-77
2022/04/10 10:51:41;;;;;;;20.38;5.30;;;;;;;7.82;62.11;99408.38;5052727;28;20124;-76
2022/04/10 10:54:11;;;;;;;31.75;7.93;;;;;;;7.81;60.17;99410.19;5051340;28;20491;-76
2022/04/10 10:56:40;;;;;;;9.82;3.78;;;;;;;7.75;59.07;99410.50;5046435;28;20037;-77
2022/04/10 10:59:28;;;;;;;17.58;4.80;;;;;;;7.69;60.00;99402.75;5048731;28;20080;-76
2022/04/10 11:01:57;;;;;;;21.70;7.03;;;;;;;7.72;59.53;99410.66;5043379;28;20041;-76
2022/04/10 11:04:28;;;;;;;13.00;4.50;;;;;;;7.60;60.65;99422.06;5042909;28;20072;-77
2022/04/10 11:06:55;;;;;;;11.27;3.83;;;;;;;7.63;60.45;99420.06;5040561;28;20049;-76
2022/04/10 11:09:24;;;;;;;15.00;5.10;;;;;;;7.63;60.71;99416.53;5047506;28;20041;-76
2022/04/10 11:11:52;;;;;;;14.25;5.05;;;;;;;7.57;60.90;99422.22;5045577;28;20362;-77
2022/04/10 11:14:35;;;;;;;19.23;6.20;;;;;;;7.48;60.95;99421.69;5042297;28;20505;-77
2022/04/10 11:17:16;;;;;;;9.63;3.47;;;;;;;7.44;60.91;99430.00;5041247;28;20053;-75
2022/04/10 11:19:46;;;;;;;11.25;3.40;;;;;;;7.43;62.09;99422.91;5040134;28;20049;-76
2022/04/10 11:22:16;;;;;;;11.75;4.03;;;;;;;7.38;61.94;99421.31;5039175;28;20056;-76
2022/04/10 11:24:45;;;;;;;12.45;4.20;;;;;;;7.38;62.77;99423.13;5036834;28;20047;-76
2022/04/10 11:27:14;;;;;;;11.55;4.40;;;;;;;7.52;61.12;99417.06;5039731;28;20110;-76
2022/04/10 11:30:02;;;;;;;22.75;7.55;;;;;;;7.52;60.72;99420.59;5036641;28;20367;-75
2022/04/10 11:32:41;;;;;;;18.40;6.55;;;;;;;7.47;60.84;99428.03;5039977;28;20042;-76
2022/04/10 11:35:15;;;;;;;17.42;5.50;;;;;;;7.58;61.54;99424.81;5040036;28;20049;-76
2022/04/10 11:37:47;;;;;;;22.67;7.75;;;;;;;7.45;61.62;99421.84;5040117;28;20053;-76
2022/04/10 11:40:17;;;;;;;24.25;7.80;;;;;;;7.54;61.33;99431.28;5039926;28;20041;-77
2022/04/10 11:42:44;;;;;;;15.85;6.57;;;;;;;7.56;61.52;99426.69;5038731;28;20051;-77
2022/04/10 11:45:14;;;;;;;13.55;5.15;;;;;;;7.62;61.73;99429.06;5040098;28;20049;-76
2022/04/10 11:47:42;;;;;;;18.63;5.97;;;;;;;7.46;60.50;99428.13;5048981;28;20045;-76
2022/04/10 11:50:12;;;;;;;21.20;7.57;;;;;;;7.46;61.44;99433.50;5047479;28;20454;-76